Nara Visa, New Mexico
Current Conditions -  °F | °C
As of 2:53 PM on Sunday 25 Jan 2015 (Local Time) from KTCC Reporting Station
Clear Clear  
Wind Chill: 50°   Ceiling: Unl
Heat Index: 50°   Visibility: 10mi
Dew Point: 31°   Wind: 7mph
Humidity: 48%   Direction: 200°SSW
Pressure: 30.21"   Gusts: NA
Location:  35.61°N, 103.1°W
Report Text: KTCC 252153Z AUTO 20006KT 10SM CLR 10/M01 A3021 RMK AO2 SLP230 T01001006
Loading
Personal Weather Stations






























Interactive Weather Map New forecast layout! Learn more

10-Day Weather Forecast

Advertisements
Track Severe Weather on mobile